sensor_id;sensor_type;location;lat;lon;timestamp;P1;durP1;ratioP1;P2;durP2;ratioP2
17915;SDS011;9083;49.156;8.982;2023-07-09T00:00:13;10.53;;;3.63;;
17915;SDS011;9083;49.156;8.982;2023-07-09T00:02:41;5.53;;;3.20;;
17915;SDS011;9083;49.156;8.982;2023-07-09T00:05:09;4.20;;;3.10;;
17915;SDS011;9083;49.156;8.982;2023-07-09T00:07:36;4.60;;;3.10;;
17915;SDS011;9083;49.156;8.982;2023-07-09T00:10:03;8.63;;;3.30;;
17915;SDS011;9083;49.156;8.982;2023-07-09T00:12:29;4.87;;;3.40;;
17915;SDS011;9083;49.156;8.982;2023-07-09T00:14:55;5.50;;;3.33;;
17915;SDS011;9083;49.156;8.982;2023-07-09T00:17:23;3.77;;;3.17;;
17915;SDS011;9083;49.156;8.982;2023-07-09T00:19:53;5.60;;;3.50;;
17915;SDS011;9083;49.156;8.982;2023-07-09T00:22:19;4.23;;;3.63;;
17915;SDS011;9083;49.156;8.982;2023-07-09T00:24:50;7.47;;;3.90;;
17915;SDS011;9083;49.156;8.982;2023-07-09T00:27:17;10.50;;;3.40;;
17915;SDS011;9083;49.156;8.982;2023-07-09T00:29:44;5.57;;;3.23;;
17915;SDS011;9083;49.156;8.982;2023-07-09T00:32:11;4.33;;;3.13;;
17915;SDS011;9083;49.156;8.982;2023-07-09T00:34:38;6.37;;;3.50;;
17915;SDS011;9083;49.156;8.982;2023-07-09T00:37:09;5.13;;;3.60;;
17915;SDS011;9083;49.156;8.982;2023-07-09T00:39:36;6.83;;;3.43;;
17915;SDS011;9083;49.156;8.982;2023-07-09T00:42:03;4.23;;;3.43;;
17915;SDS011;9083;49.156;8.982;2023-07-09T00:44:30;7.07;;;3.03;;
17915;SDS011;9083;49.156;8.982;2023-07-09T00:47:12;3.67;;;2.97;;
17915;SDS011;9083;49.156;8.982;2023-07-09T00:49:42;3.13;;;2.83;;
17915;SDS011;9083;49.156;8.982;2023-07-09T00:52:17;6.87;;;3.77;;
17915;SDS011;9083;49.156;8.982;2023-07-09T00:54:47;4.30;;;2.90;;
17915;SDS011;9083;49.156;8.982;2023-07-09T00:57:15;6.77;;;3.77;;
17915;SDS011;9083;49.156;8.982;2023-07-09T00:59:43;4.57;;;3.13;;
17915;SDS011;9083;49.156;8.982;2023-07-09T01:02:10;6.10;;;3.27;;
17915;SDS011;9083;49.156;8.982;2023-07-09T01:04:37;5.13;;;3.10;;
17915;SDS011;9083;49.156;8.982;2023-07-09T01:07:04;3.83;;;2.87;;
17915;SDS011;9083;49.156;8.982;2023-07-09T01:09:32;5.40;;;3.37;;
17915;SDS011;9083;49.156;8.982;2023-07-09T01:12:00;3.47;;;2.80;;
17915;SDS011;9083;49.156;8.982;2023-07-09T01:14:27;4.27;;;3.00;;
17915;SDS011;9083;49.156;8.982;2023-07-09T01:16:55;3.97;;;3.50;;
17915;SDS011;9083;49.156;8.982;2023-07-09T01:19:23;5.40;;;3.03;;
17915;SDS011;9083;49.156;8.982;2023-07-09T01:21:51;5.33;;;2.90;;
17915;SDS011;9083;49.156;8.982;2023-07-09T01:27:01;4.20;;;2.83;;
17915;SDS011;9083;49.156;8.982;2023-07-09T01:29:29;3.90;;;3.50;;
17915;SDS011;9083;49.156;8.982;2023-07-09T01:31:57;5.20;;;2.90;;
17915;SDS011;9083;49.156;8.982;2023-07-09T01:34:23;4.77;;;2.87;;
17915;SDS011;9083;49.156;8.982;2023-07-09T01:36:51;5.20;;;3.27;;
17915;SDS011;9083;49.156;8.982;2023-07-09T01:39:18;5.00;;;2.83;;
17915;SDS011;9083;49.156;8.982;2023-07-09T01:41:44;5.27;;;3.43;;
17915;SDS011;9083;49.156;8.982;2023-07-09T01:44:12;6.90;;;3.07;;
17915;SDS011;9083;49.156;8.982;2023-07-09T01:46:39;3.57;;;2.93;;
17915;SDS011;9083;49.156;8.982;2023-07-09T01:49:07;4.10;;;3.23;;
17915;SDS011;9083;49.156;8.982;2023-07-09T01:51:34;3.33;;;2.73;;
17915;SDS011;9083;49.156;8.982;2023-07-09T01:54:02;3.40;;;3.10;;
17915;SDS011;9083;49.156;8.982;2023-07-09T01:56:29;3.57;;;3.17;;
17915;SDS011;9083;49.156;8.982;2023-07-09T01:58:55;5.50;;;3.07;;
17915;SDS011;9083;49.156;8.982;2023-07-09T02:01:26;5.17;;;3.20;;
17915;SDS011;9083;49.156;8.982;2023-07-09T02:03:53;6.67;;;3.50;;
17915;SDS011;9083;49.156;8.982;2023-07-09T02:06:19;4.47;;;3.00;;
17915;SDS011;9083;49.156;8.982;2023-07-09T02:08:49;6.33;;;3.40;;
17915;SDS011;9083;49.156;8.982;2023-07-09T02:11:16;5.30;;;3.33;;
17915;SDS011;9083;49.156;8.982;2023-07-09T02:13:43;4.10;;;3.17;;
17915;SDS011;9083;49.156;8.982;2023-07-09T02:16:09;3.87;;;3.00;;
17915;SDS011;9083;49.156;8.982;2023-07-09T02:18:35;7.60;;;3.20;;
17915;SDS011;9083;49.156;8.982;2023-07-09T02:21:02;3.77;;;3.00;;
17915;SDS011;9083;49.156;8.982;2023-07-09T02:23:28;3.93;;;3.10;;
17915;SDS011;9083;49.156;8.982;2023-07-09T02:25:54;4.17;;;3.23;;
17915;SDS011;9083;49.156;8.982;2023-07-09T02:28:22;5.23;;;3.20;;
17915;SDS011;9083;49.156;8.982;2023-07-09T02:30:48;6.87;;;3.50;;
17915;SDS011;9083;49.156;8.982;2023-07-09T02:33:15;4.73;;;3.50;;
17915;SDS011;9083;49.156;8.982;2023-07-09T02:35:41;5.07;;;3.30;;
17915;SDS011;9083;49.156;8.982;2023-07-09T02:38:07;6.77;;;3.07;;
17915;SDS011;9083;49.156;8.982;2023-07-09T02:40:33;5.70;;;3.37;;
17915;SDS011;9083;49.156;8.982;2023-07-09T02:43:00;4.10;;;3.30;;
17915;SDS011;9083;49.156;8.982;2023-07-09T02:45:27;4.73;;;3.03;;
17915;SDS011;9083;49.156;8.982;2023-07-09T02:47:54;7.43;;;3.50;;
17915;SDS011;9083;49.156;8.982;2023-07-09T02:50:20;5.70;;;3.40;;
17915;SDS011;9083;49.156;8.982;2023-07-09T02:52:46;5.60;;;3.57;;
17915;SDS011;9083;49.156;8.982;2023-07-09T02:55:13;4.30;;;3.10;;
17915;SDS011;9083;49.156;8.982;2023-07-09T02:57:39;6.43;;;3.93;;
17915;SDS011;9083;49.156;8.982;2023-07-09T03:00:06;9.00;;;3.70;;
17915;SDS011;9083;49.156;8.982;2023-07-09T03:02:34;8.07;;;3.73;;
17915;SDS011;9083;49.156;8.982;2023-07-09T03:05:00;5.77;;;3.90;;
17915;SDS011;9083;49.156;8.982;2023-07-09T03:07:26;4.80;;;3.47;;
17915;SDS011;9083;49.156;8.982;2023-07-09T03:09:53;4.43;;;3.50;;
17915;SDS011;9083;49.156;8.982;2023-07-09T03:12:19;7.30;;;3.50;;
17915;SDS011;9083;49.156;8.982;2023-07-09T03:14:47;4.47;;;3.97;;
17915;SDS011;9083;49.156;8.982;2023-07-09T03:17:13;6.03;;;3.27;;
17915;SDS011;9083;49.156;8.982;2023-07-09T03:19:41;7.07;;;3.90;;
17915;SDS011;9083;49.156;8.982;2023-07-09T03:22:07;5.57;;;3.77;;
17915;SDS011;9083;49.156;8.982;2023-07-09T03:24:33;9.90;;;4.27;;
17915;SDS011;9083;49.156;8.982;2023-07-09T03:27:00;5.03;;;4.07;;
17915;SDS011;9083;49.156;8.982;2023-07-09T03:29:26;8.93;;;3.63;;
17915;SDS011;9083;49.156;8.982;2023-07-09T03:31:52;4.33;;;3.87;;
17915;SDS011;9083;49.156;8.982;2023-07-09T03:34:18;4.67;;;3.73;;
17915;SDS011;9083;49.156;8.982;2023-07-09T03:36:46;7.93;;;4.97;;
17915;SDS011;9083;49.156;8.982;2023-07-09T03:39:12;7.47;;;4.00;;
17915;SDS011;9083;49.156;8.982;2023-07-09T03:41:39;5.20;;;4.20;;
17915;SDS011;9083;49.156;8.982;2023-07-09T03:44:05;6.77;;;4.03;;
17915;SDS011;9083;49.156;8.982;2023-07-09T03:46:31;4.53;;;3.63;;
17915;SDS011;9083;49.156;8.982;2023-07-09T03:48:58;8.47;;;4.17;;
17915;SDS011;9083;49.156;8.982;2023-07-09T03:51:24;7.57;;;4.30;;
17915;SDS011;9083;49.156;8.982;2023-07-09T03:53:52;6.27;;;3.50;;
17915;SDS011;9083;49.156;8.982;2023-07-09T03:56:18;8.07;;;4.10;;
17915;SDS011;9083;49.156;8.982;2023-07-09T03:58:44;5.87;;;4.07;;
17915;SDS011;9083;49.156;8.982;2023-07-09T04:01:11;7.40;;;3.90;;
17915;SDS011;9083;49.156;8.982;2023-07-09T04:03:37;8.17;;;3.83;;
17915;SDS011;9083;49.156;8.982;2023-07-09T04:06:04;5.33;;;4.20;;
17915;SDS011;9083;49.156;8.982;2023-07-09T04:08:30;6.70;;;3.57;;
17915;SDS011;9083;49.156;8.982;2023-07-09T04:11:00;6.67;;;4.43;;
17915;SDS011;9083;49.156;8.982;2023-07-09T04:13:27;6.30;;;4.30;;
17915;SDS011;9083;49.156;8.982;2023-07-09T04:15:53;5.03;;;4.10;;
17915;SDS011;9083;49.156;8.982;2023-07-09T04:18:19;9.07;;;4.03;;
17915;SDS011;9083;49.156;8.982;2023-07-09T04:20:47;4.70;;;3.97;;
17915;SDS011;9083;49.156;8.982;2023-07-09T04:23:13;7.83;;;3.77;;
17915;SDS011;9083;49.156;8.982;2023-07-09T04:25:40;5.80;;;3.87;;
17915;SDS011;9083;49.156;8.982;2023-07-09T04:28:07;8.17;;;4.03;;
17915;SDS011;9083;49.156;8.982;2023-07-09T04:30:34;4.60;;;3.67;;
17915;SDS011;9083;49.156;8.982;2023-07-09T04:33:00;4.53;;;3.83;;
17915;SDS011;9083;49.156;8.982;2023-07-09T04:35:27;6.43;;;3.90;;
17915;SDS011;9083;49.156;8.982;2023-07-09T04:37:53;7.03;;;3.93;;
17915;SDS011;9083;49.156;8.982;2023-07-09T04:40:19;5.57;;;4.33;;
17915;SDS011;9083;49.156;8.982;2023-07-09T04:42:46;7.73;;;3.87;;
17915;SDS011;9083;49.156;8.982;2023-07-09T04:45:13;9.87;;;4.37;;
17915;SDS011;9083;49.156;8.982;2023-07-09T04:47:39;10.53;;;4.40;;
17915;SDS011;9083;49.156;8.982;2023-07-09T04:50:06;8.17;;;3.90;;
17915;SDS011;9083;49.156;8.982;2023-07-09T04:52:33;6.03;;;4.03;;
17915;SDS011;9083;49.156;8.982;2023-07-09T04:54:59;9.03;;;4.40;;
17915;SDS011;9083;49.156;8.982;2023-07-09T04:57:26;7.57;;;4.30;;
17915;SDS011;9083;49.156;8.982;2023-07-09T04:59:52;7.77;;;4.73;;
17915;SDS011;9083;49.156;8.982;2023-07-09T05:02:20;7.97;;;4.20;;
17915;SDS011;9083;49.156;8.982;2023-07-09T05:04:46;5.50;;;4.13;;
17915;SDS011;9083;49.156;8.982;2023-07-09T05:07:12;4.90;;;4.10;;
17915;SDS011;9083;49.156;8.982;2023-07-09T05:09:39;6.23;;;4.07;;
17915;SDS011;9083;49.156;8.982;2023-07-09T05:12:05;7.93;;;4.17;;
17915;SDS011;9083;49.156;8.982;2023-07-09T05:14:32;5.57;;;3.83;;
17915;SDS011;9083;49.156;8.982;2023-07-09T05:16:58;4.37;;;3.83;;
17915;SDS011;9083;49.156;8.982;2023-07-09T05:19:26;7.43;;;3.90;;
17915;SDS011;9083;49.156;8.982;2023-07-09T05:21:52;5.90;;;4.00;;
17915;SDS011;9083;49.156;8.982;2023-07-09T05:24:18;4.67;;;3.97;;
17915;SDS011;9083;49.156;8.982;2023-07-09T05:26:44;4.63;;;3.97;;
17915;SDS011;9083;49.156;8.982;2023-07-09T05:29:11;4.60;;;3.90;;
17915;SDS011;9083;49.156;8.982;2023-07-09T05:31:37;6.57;;;4.30;;
17915;SDS011;9083;49.156;8.982;2023-07-09T05:34:03;6.47;;;4.13;;
17915;SDS011;9083;49.156;8.982;2023-07-09T05:36:31;8.73;;;4.10;;
17915;SDS011;9083;49.156;8.982;2023-07-09T05:38:58;6.87;;;3.87;;
17915;SDS011;9083;49.156;8.982;2023-07-09T05:41:24;9.10;;;4.83;;
17915;SDS011;9083;49.156;8.982;2023-07-09T05:43:50;7.73;;;4.30;;
17915;SDS011;9083;49.156;8.982;2023-07-09T05:46:17;6.63;;;3.80;;
17915;SDS011;9083;49.156;8.982;2023-07-09T05:48:44;6.07;;;3.80;;
17915;SDS011;9083;49.156;8.982;2023-07-09T05:51:10;5.43;;;3.67;;
17915;SDS011;9083;49.156;8.982;2023-07-09T05:53:38;6.53;;;4.37;;
17915;SDS011;9083;49.156;8.982;2023-07-09T05:56:04;7.87;;;4.90;;
17915;SDS011;9083;49.156;8.982;2023-07-09T05:58:31;4.87;;;3.70;;
17915;SDS011;9083;49.156;8.982;2023-07-09T06:00:57;10.57;;;5.07;;
17915;SDS011;9083;49.156;8.982;2023-07-09T06:03:26;8.00;;;3.80;;
17915;SDS011;9083;49.156;8.982;2023-07-09T06:05:52;7.53;;;4.30;;
17915;SDS011;9083;49.156;8.982;2023-07-09T06:08:19;9.87;;;4.07;;
17915;SDS011;9083;49.156;8.982;2023-07-09T06:10:53;7.90;;;4.30;;
17915;SDS011;9083;49.156;8.982;2023-07-09T06:13:20;6.80;;;4.20;;
17915;SDS011;9083;49.156;8.982;2023-07-09T06:15:46;11.17;;;3.90;;
17915;SDS011;9083;49.156;8.982;2023-07-09T06:18:13;6.43;;;3.80;;
17915;SDS011;9083;49.156;8.982;2023-07-09T06:20:39;4.40;;;3.57;;
17915;SDS011;9083;49.156;8.982;2023-07-09T06:23:05;7.87;;;4.53;;
17915;SDS011;9083;49.156;8.982;2023-07-09T06:25:32;7.20;;;4.70;;
17915;SDS011;9083;49.156;8.982;2023-07-09T06:28:00;8.67;;;4.40;;
17915;SDS011;9083;49.156;8.982;2023-07-09T06:30:26;5.87;;;4.10;;
17915;SDS011;9083;49.156;8.982;2023-07-09T06:32:54;5.23;;;4.10;;
17915;SDS011;9083;49.156;8.982;2023-07-09T06:35:21;8.80;;;4.00;;
17915;SDS011;9083;49.156;8.982;2023-07-09T06:37:47;5.33;;;4.10;;
17915;SDS011;9083;49.156;8.982;2023-07-09T06:40:14;7.53;;;3.83;;
17915;SDS011;9083;49.156;8.982;2023-07-09T06:42:40;8.43;;;3.70;;
17915;SDS011;9083;49.156;8.982;2023-07-09T06:45:08;5.03;;;4.40;;
17915;SDS011;9083;49.156;8.982;2023-07-09T06:47:34;6.50;;;4.10;;
17915;SDS011;9083;49.156;8.982;2023-07-09T06:50:00;6.90;;;4.50;;
17915;SDS011;9083;49.156;8.982;2023-07-09T06:52:27;4.70;;;4.20;;
17915;SDS011;9083;49.156;8.982;2023-07-09T06:54:53;9.13;;;4.13;;
17915;SDS011;9083;49.156;8.982;2023-07-09T06:57:19;5.87;;;4.60;;
17915;SDS011;9083;49.156;8.982;2023-07-09T06:59:45;5.10;;;3.87;;
17915;SDS011;9083;49.156;8.982;2023-07-09T07:02:13;6.67;;;4.63;;
17915;SDS011;9083;49.156;8.982;2023-07-09T07:04:40;7.77;;;3.70;;
17915;SDS011;9083;49.156;8.982;2023-07-09T07:07:06;7.67;;;4.40;;
17915;SDS011;9083;49.156;8.982;2023-07-09T07:09:33;11.37;;;5.80;;
17915;SDS011;9083;49.156;8.982;2023-07-09T07:11:59;7.37;;;4.10;;
17915;SDS011;9083;49.156;8.982;2023-07-09T07:14:25;7.60;;;4.80;;
17915;SDS011;9083;49.156;8.982;2023-07-09T07:16:51;7.67;;;4.07;;
17915;SDS011;9083;49.156;8.982;2023-07-09T07:19:19;11.27;;;6.18;;
17915;SDS011;9083;49.156;8.982;2023-07-09T07:21:45;5.00;;;4.10;;
17915;SDS011;9083;49.156;8.982;2023-07-09T07:24:12;4.65;;;4.15;;
17915;SDS011;9083;49.156;8.982;2023-07-09T07:26:38;7.30;;;4.05;;
17915;SDS011;9083;49.156;8.982;2023-07-09T07:29:04;5.82;;;4.40;;
17915;SDS011;9083;49.156;8.982;2023-07-09T07:31:30;5.60;;;3.92;;
17915;SDS011;9083;49.156;8.982;2023-07-09T07:33:57;9.52;;;4.13;;
17915;SDS011;9083;49.156;8.982;2023-07-09T07:36:24;6.57;;;4.03;;
17915;SDS011;9083;49.156;8.982;2023-07-09T07:38:51;6.22;;;3.50;;
17915;SDS011;9083;49.156;8.982;2023-07-09T07:41:17;7.55;;;4.88;;
17915;SDS011;9083;49.156;8.982;2023-07-09T07:43:43;6.30;;;4.65;;
17915;SDS011;9083;49.156;8.982;2023-07-09T07:46:09;4.28;;;3.83;;
17915;SDS011;9083;49.156;8.982;2023-07-09T07:48:36;4.63;;;3.53;;
17915;SDS011;9083;49.156;8.982;2023-07-09T07:51:02;4.88;;;3.53;;
17915;SDS011;9083;49.156;8.982;2023-07-09T07:53:30;7.70;;;4.22;;
17915;SDS011;9083;49.156;8.982;2023-07-09T07:55:57;10.18;;;4.15;;
17915;SDS011;9083;49.156;8.982;2023-07-09T07:58:23;4.00;;;3.58;;
17915;SDS011;9083;49.156;8.982;2023-07-09T08:00:53;4.47;;;3.38;;
17915;SDS011;9083;49.156;8.982;2023-07-09T08:03:20;7.07;;;4.05;;
17915;SDS011;9083;49.156;8.982;2023-07-09T08:05:48;3.80;;;3.38;;
17915;SDS011;9083;49.156;8.982;2023-07-09T08:08:14;9.23;;;4.25;;
17915;SDS011;9083;49.156;8.982;2023-07-09T08:10:41;3.85;;;3.35;;
17915;SDS011;9083;49.156;8.982;2023-07-09T08:13:08;6.60;;;4.35;;
17915;SDS011;9083;49.156;8.982;2023-07-09T08:15:34;3.83;;;3.22;;
17915;SDS011;9083;49.156;8.982;2023-07-09T08:18:00;8.60;;;3.90;;
17915;SDS011;9083;49.156;8.982;2023-07-09T08:20:27;6.18;;;4.15;;
17915;SDS011;9083;49.156;8.982;2023-07-09T08:22:53;5.07;;;3.67;;
17915;SDS011;9083;49.156;8.982;2023-07-09T08:25:19;5.03;;;3.83;;
17915;SDS011;9083;49.156;8.982;2023-07-09T08:27:47;3.95;;;3.30;;
17915;SDS011;9083;49.156;8.982;2023-07-09T08:30:13;5.70;;;4.03;;
17915;SDS011;9083;49.156;8.982;2023-07-09T08:32:39;6.00;;;3.50;;
17915;SDS011;9083;49.156;8.982;2023-07-09T08:35:06;4.53;;;2.97;;
17915;SDS011;9083;49.156;8.982;2023-07-09T08:37:35;5.10;;;3.42;;
17915;SDS011;9083;49.156;8.982;2023-07-09T08:40:01;5.38;;;3.53;;
17915;SDS011;9083;49.156;8.982;2023-07-09T08:42:29;3.80;;;3.47;;
17915;SDS011;9083;49.156;8.982;2023-07-09T08:45:00;7.95;;;3.60;;
17915;SDS011;9083;49.156;8.982;2023-07-09T08:47:31;5.25;;;3.45;;
17915;SDS011;9083;49.156;8.982;2023-07-09T08:49:58;6.45;;;3.78;;
17915;SDS011;9083;49.156;8.982;2023-07-09T08:52:26;4.00;;;3.60;;
17915;SDS011;9083;49.156;8.982;2023-07-09T08:54:54;4.72;;;3.42;;
17915;SDS011;9083;49.156;8.982;2023-07-09T08:57:22;6.40;;;3.75;;
17915;SDS011;9083;49.156;8.982;2023-07-09T08:59:50;7.60;;;3.25;;
17915;SDS011;9083;49.156;8.982;2023-07-09T09:02:25;4.60;;;3.30;;
17915;SDS011;9083;49.156;8.982;2023-07-09T09:04:53;7.35;;;3.45;;
17915;SDS011;9083;49.156;8.982;2023-07-09T09:07:23;5.22;;;3.65;;
17915;SDS011;9083;49.156;8.982;2023-07-09T09:09:53;3.60;;;3.22;;
17915;SDS011;9083;49.156;8.982;2023-07-09T09:12:23;5.20;;;3.53;;
17915;SDS011;9083;49.156;8.982;2023-07-09T09:14:52;4.35;;;3.08;;
17915;SDS011;9083;49.156;8.982;2023-07-09T09:17:23;6.90;;;3.22;;
17915;SDS011;9083;49.156;8.982;2023-07-09T09:19:53;5.38;;;3.35;;
17915;SDS011;9083;49.156;8.982;2023-07-09T09:22:21;4.13;;;2.85;;
17915;SDS011;9083;49.156;8.982;2023-07-09T09:24:53;9.57;;;3.17;;
17915;SDS011;9083;49.156;8.982;2023-07-09T09:27:21;4.03;;;2.95;;
17915;SDS011;9083;49.156;8.982;2023-07-09T09:29:47;3.25;;;2.63;;
17915;SDS011;9083;49.156;8.982;2023-07-09T09:32:18;5.00;;;2.67;;
17915;SDS011;9083;49.156;8.982;2023-07-09T09:34:47;3.92;;;3.10;;
17915;SDS011;9083;49.156;8.982;2023-07-09T09:37:15;3.10;;;2.63;;
17915;SDS011;9083;49.156;8.982;2023-07-09T09:39:49;3.85;;;2.80;;
17915;SDS011;9083;49.156;8.982;2023-07-09T09:42:15;7.13;;;2.53;;
17915;SDS011;9083;49.156;8.982;2023-07-09T09:44:43;4.18;;;2.95;;
17915;SDS011;9083;49.156;8.982;2023-07-09T09:47:09;3.50;;;2.78;;
17915;SDS011;9083;49.156;8.982;2023-07-09T09:49:38;6.13;;;2.92;;
17915;SDS011;9083;49.156;8.982;2023-07-09T09:52:09;3.35;;;2.78;;
17915;SDS011;9083;49.156;8.982;2023-07-09T09:54:39;3.58;;;3.15;;
17915;SDS011;9083;49.156;8.982;2023-07-09T09:57:13;2.75;;;2.55;;
17915;SDS011;9083;49.156;8.982;2023-07-09T09:59:40;3.13;;;2.58;;
17915;SDS011;9083;49.156;8.982;2023-07-09T10:02:12;4.32;;;2.58;;
17915;SDS011;9083;49.156;8.982;2023-07-09T10:04:40;3.65;;;3.00;;
17915;SDS011;9083;49.156;8.982;2023-07-09T10:07:08;3.38;;;2.97;;
17915;SDS011;9083;49.156;8.982;2023-07-09T10:09:38;4.70;;;2.70;;
17915;SDS011;9083;49.156;8.982;2023-07-09T10:12:10;6.57;;;2.95;;
17915;SDS011;9083;49.156;8.982;2023-07-09T10:14:40;3.03;;;2.72;;
17915;SDS011;9083;49.156;8.982;2023-07-09T10:17:14;5.38;;;2.88;;
17915;SDS011;9083;49.156;8.982;2023-07-09T10:19:44;2.67;;;2.45;;
17915;SDS011;9083;49.156;8.982;2023-07-09T10:22:16;2.70;;;2.50;;
17915;SDS011;9083;49.156;8.982;2023-07-09T10:24:48;3.78;;;2.80;;
17915;SDS011;9083;49.156;8.982;2023-07-09T10:27:18;4.97;;;2.95;;
17915;SDS011;9083;49.156;8.982;2023-07-09T10:29:58;4.78;;;2.75;;
17915;SDS011;9083;49.156;8.982;2023-07-09T10:32:32;2.85;;;2.65;;
17915;SDS011;9083;49.156;8.982;2023-07-09T10:35:02;3.92;;;2.72;;
17915;SDS011;9083;49.156;8.982;2023-07-09T10:37:44;2.85;;;2.60;;
17915;SDS011;9083;49.156;8.982;2023-07-09T10:40:16;5.38;;;2.42;;
17915;SDS011;9083;49.156;8.982;2023-07-09T10:42:43;3.35;;;2.83;;
17915;SDS011;9083;49.156;8.982;2023-07-09T10:45:10;5.47;;;3.22;;
17915;SDS011;9083;49.156;8.982;2023-07-09T10:47:38;3.33;;;2.40;;
17915;SDS011;9083;49.156;8.982;2023-07-09T10:50:09;2.80;;;2.38;;
17915;SDS011;9083;49.156;8.982;2023-07-09T10:52:36;5.00;;;2.42;;
17915;SDS011;9083;49.156;8.982;2023-07-09T10:55:04;3.22;;;2.25;;
17915;SDS011;9083;49.156;8.982;2023-07-09T10:57:34;3.65;;;2.72;;
17915;SDS011;9083;49.156;8.982;2023-07-09T11:00:07;4.57;;;2.70;;
17915;SDS011;9083;49.156;8.982;2023-07-09T11:02:37;2.72;;;2.53;;
17915;SDS011;9083;49.156;8.982;2023-07-09T11:05:05;3.33;;;2.58;;
17915;SDS011;9083;49.156;8.982;2023-07-09T11:07:33;3.95;;;2.30;;
17915;SDS011;9083;49.156;8.982;2023-07-09T11:10:04;3.95;;;2.55;;
17915;SDS011;9083;49.156;8.982;2023-07-09T11:12:33;3.65;;;2.65;;
17915;SDS011;9083;49.156;8.982;2023-07-09T11:15:02;4.65;;;2.85;;
17915;SDS011;9083;49.156;8.982;2023-07-09T11:17:29;2.65;;;2.38;;
17915;SDS011;9083;49.156;8.982;2023-07-09T11:19:59;5.50;;;2.60;;
17915;SDS011;9083;49.156;8.982;2023-07-09T11:22:27;2.63;;;2.50;;
17915;SDS011;9083;49.156;8.982;2023-07-09T11:25:05;5.97;;;2.70;;
17915;SDS011;9083;49.156;8.982;2023-07-09T11:27:32;2.55;;;2.33;;
17915;SDS011;9083;49.156;8.982;2023-07-09T11:29:59;6.43;;;2.83;;
17915;SDS011;9083;49.156;8.982;2023-07-09T11:32:26;3.58;;;2.75;;
17915;SDS011;9083;49.156;8.982;2023-07-09T11:34:53;5.38;;;3.25;;
17915;SDS011;9083;49.156;8.982;2023-07-09T11:37:20;4.90;;;2.83;;
17915;SDS011;9083;49.156;8.982;2023-07-09T11:39:48;3.50;;;2.70;;
17915;SDS011;9083;49.156;8.982;2023-07-09T11:42:24;4.63;;;3.25;;
17915;SDS011;9083;49.156;8.982;2023-07-09T11:44:51;4.55;;;2.47;;
17915;SDS011;9083;49.156;8.982;2023-07-09T11:47:20;4.70;;;2.22;;
17915;SDS011;9083;49.156;8.982;2023-07-09T11:49:48;2.95;;;2.40;;
17915;SDS011;9083;49.156;8.982;2023-07-09T11:52:16;4.63;;;2.67;;
17915;SDS011;9083;49.156;8.982;2023-07-09T11:54:44;3.45;;;2.75;;
17915;SDS011;9083;49.156;8.982;2023-07-09T11:57:11;3.25;;;2.67;;
17915;SDS011;9083;49.156;8.982;2023-07-09T11:59:40;3.38;;;2.72;;
17915;SDS011;9083;49.156;8.982;2023-07-09T12:02:09;3.08;;;2.80;;
17915;SDS011;9083;49.156;8.982;2023-07-09T12:04:39;7.43;;;3.17;;
17915;SDS011;9083;49.156;8.982;2023-07-09T12:07:06;5.00;;;2.90;;
17915;SDS011;9083;49.156;8.982;2023-07-09T12:09:33;3.83;;;2.90;;
17915;SDS011;9083;49.156;8.982;2023-07-09T12:12:03;2.90;;;2.70;;
17915;SDS011;9083;49.156;8.982;2023-07-09T12:14:30;5.85;;;3.38;;
17915;SDS011;9083;49.156;8.982;2023-07-09T12:16:57;3.33;;;3.03;;
17915;SDS011;9083;49.156;8.982;2023-07-09T12:19:24;5.40;;;3.13;;
17915;SDS011;9083;49.156;8.982;2023-07-09T12:21:51;6.97;;;3.10;;
17915;SDS011;9083;49.156;8.982;2023-07-09T12:24:19;5.40;;;3.78;;
17915;SDS011;9083;49.156;8.982;2023-07-09T12:26:47;4.68;;;3.40;;
17915;SDS011;9083;49.156;8.982;2023-07-09T12:29:13;4.43;;;3.17;;
17915;SDS011;9083;49.156;8.982;2023-07-09T12:31:40;5.07;;;2.88;;
17915;SDS011;9083;49.156;8.982;2023-07-09T12:34:11;3.00;;;2.80;;
17915;SDS011;9083;49.156;8.982;2023-07-09T12:36:38;5.53;;;3.10;;
17915;SDS011;9083;49.156;8.982;2023-07-09T12:39:05;3.63;;;2.67;;
17915;SDS011;9083;49.156;8.982;2023-07-09T12:41:33;4.10;;;3.00;;
17915;SDS011;9083;49.156;8.982;2023-07-09T12:44:01;7.03;;;3.15;;
17915;SDS011;9083;49.156;8.982;2023-07-09T12:46:28;3.53;;;3.22;;
17915;SDS011;9083;49.156;8.982;2023-07-09T12:48:55;5.05;;;2.95;;
17915;SDS011;9083;49.156;8.982;2023-07-09T12:51:23;3.65;;;3.28;;
17915;SDS011;9083;49.156;8.982;2023-07-09T12:53:59;5.50;;;3.40;;
17915;SDS011;9083;49.156;8.982;2023-07-09T12:56:26;5.00;;;2.90;;
17915;SDS011;9083;49.156;8.982;2023-07-09T12:58:55;7.53;;;3.92;;
17915;SDS011;9083;49.156;8.982;2023-07-09T13:01:22;8.50;;;4.07;;
17915;SDS011;9083;49.156;8.982;2023-07-09T13:03:54;9.43;;;3.30;;
17915;SDS011;9083;49.156;8.982;2023-07-09T13:06:26;3.55;;;2.75;;
17915;SDS011;9083;49.156;8.982;2023-07-09T13:08:55;8.98;;;3.58;;
17915;SDS011;9083;49.156;8.982;2023-07-09T13:11:21;7.03;;;3.03;;
17915;SDS011;9083;49.156;8.982;2023-07-09T13:13:54;8.25;;;3.20;;
17915;SDS011;9083;49.156;8.982;2023-07-09T13:16:20;4.75;;;3.00;;
17915;SDS011;9083;49.156;8.982;2023-07-09T13:18:47;3.25;;;2.83;;
17915;SDS011;9083;49.156;8.982;2023-07-09T13:21:14;10.63;;;3.35;;
17915;SDS011;9083;49.156;8.982;2023-07-09T13:23:43;6.50;;;3.42;;
17915;SDS011;9083;49.156;8.982;2023-07-09T13:26:09;5.20;;;3.13;;
17915;SDS011;9083;49.156;8.982;2023-07-09T13:28:35;4.93;;;3.33;;
17915;SDS011;9083;49.156;8.982;2023-07-09T13:31:08;5.07;;;3.17;;
17915;SDS011;9083;49.156;8.982;2023-07-09T13:33:36;6.30;;;3.38;;
17915;SDS011;9083;49.156;8.982;2023-07-09T13:36:04;5.82;;;2.67;;
17915;SDS011;9083;49.156;8.982;2023-07-09T13:38:31;3.58;;;2.90;;
17915;SDS011;9083;49.156;8.982;2023-07-09T13:41:00;4.65;;;3.30;;
17915;SDS011;9083;49.156;8.982;2023-07-09T13:43:28;6.03;;;3.17;;
17915;SDS011;9083;49.156;8.982;2023-07-09T13:45:55;5.82;;;2.80;;
17915;SDS011;9083;49.156;8.982;2023-07-09T13:48:22;5.93;;;2.90;;
17915;SDS011;9083;49.156;8.982;2023-07-09T13:50:49;5.13;;;3.25;;
17915;SDS011;9083;49.156;8.982;2023-07-09T13:53:16;4.10;;;2.72;;
17915;SDS011;9083;49.156;8.982;2023-07-09T13:55:43;6.68;;;2.97;;
17915;SDS011;9083;49.156;8.982;2023-07-09T13:58:12;5.13;;;3.20;;
17915;SDS011;9083;49.156;8.982;2023-07-09T14:00:39;4.72;;;3.30;;
17915;SDS011;9083;49.156;8.982;2023-07-09T14:03:07;6.00;;;2.92;;
17915;SDS011;9083;49.156;8.982;2023-07-09T14:05:35;5.07;;;2.55;;
17915;SDS011;9083;49.156;8.982;2023-07-09T14:08:01;6.63;;;3.33;;
17915;SDS011;9083;49.156;8.982;2023-07-09T14:10:27;7.93;;;2.97;;
17915;SDS011;9083;49.156;8.982;2023-07-09T14:12:54;11.23;;;3.30;;
17915;SDS011;9083;49.156;8.982;2023-07-09T14:15:23;9.27;;;3.33;;
17915;SDS011;9083;49.156;8.982;2023-07-09T14:17:49;4.57;;;3.42;;
17915;SDS011;9083;49.156;8.982;2023-07-09T14:20:18;4.72;;;2.67;;
17915;SDS011;9083;49.156;8.982;2023-07-09T14:22:46;3.40;;;2.95;;
17915;SDS011;9083;49.156;8.982;2023-07-09T14:25:17;4.93;;;2.92;;
17915;SDS011;9083;49.156;8.982;2023-07-09T14:27:44;3.22;;;2.92;;
17915;SDS011;9083;49.156;8.982;2023-07-09T14:30:13;2.55;;;2.35;;
17915;SDS011;9083;49.156;8.982;2023-07-09T14:32:41;5.57;;;3.05;;
17915;SDS011;9083;49.156;8.982;2023-07-09T14:35:11;4.47;;;2.88;;
17915;SDS011;9083;49.156;8.982;2023-07-09T14:37:37;6.43;;;2.70;;
17915;SDS011;9083;49.156;8.982;2023-07-09T14:40:04;8.82;;;3.20;;
17915;SDS011;9083;49.156;8.982;2023-07-09T14:42:30;9.25;;;3.03;;
17915;SDS011;9083;49.156;8.982;2023-07-09T14:44:57;3.40;;;2.60;;
17915;SDS011;9083;49.156;8.982;2023-07-09T14:47:23;8.23;;;3.05;;
17915;SDS011;9083;49.156;8.982;2023-07-09T14:49:51;5.03;;;2.40;;
17915;SDS011;9083;49.156;8.982;2023-07-09T14:52:18;6.78;;;3.25;;
17915;SDS011;9083;49.156;8.982;2023-07-09T14:54:46;3.38;;;2.97;;
17915;SDS011;9083;49.156;8.982;2023-07-09T14:57:16;4.88;;;2.53;;
17915;SDS011;9083;49.156;8.982;2023-07-09T14:59:44;8.80;;;3.05;;
17915;SDS011;9083;49.156;8.982;2023-07-09T15:02:15;3.20;;;2.70;;
17915;SDS011;9083;49.156;8.982;2023-07-09T15:04:45;4.28;;;2.65;;